CheckWX is a tool to help pilots better visualize weather data.  It is not intended as a substitute for an official pre-flight weather briefing.

22:36:05 UTC

GMTA TAF
Cherif Al Idrissi Airport
Al Hoceima, Morocco
TAF GMTA 191700Z 1918/2024 VRB02KT CAVOK

Oct-19@
18:00 UTC

Oct-19 @ 18:00 UTC

Oct-21@
00:00 UTC

Oct-21 @ 00:00 UTC

TAF GMTA 191700Z 1918/2024 VRB02KT CAVOK
Wind
  • Variable at 2 KTS
Conditions
No significant weather
Cloud Levels
  • No significant clouds